createdAt,value
2023-05-19T00:01:37.690Z,3.97
2023-05-19T00:04:05.495Z,3.70
2023-05-19T00:06:33.096Z,3.87
2023-05-19T00:09:05.762Z,3.87
2023-05-19T00:11:36.363Z,2.80
2023-05-19T00:14:06.059Z,2.50
2023-05-19T00:16:34.140Z,2.83
2023-05-19T00:19:02.685Z,2.37
2023-05-19T00:21:31.284Z,2.25
2023-05-19T00:23:58.942Z,1.75
2023-05-19T00:26:27.813Z,1.87
2023-05-19T00:28:55.380Z,2.42
2023-05-19T00:31:22.813Z,2.10
2023-05-19T00:33:49.855Z,2.12
2023-05-19T00:36:16.870Z,2.17
2023-05-19T00:38:44.248Z,1.90
2023-05-19T00:41:11.879Z,2.05
2023-05-19T00:43:38.986Z,1.90
2023-05-19T00:46:07.562Z,2.33
2023-05-19T00:48:35.233Z,2.05
2023-05-19T00:51:04.836Z,2.12
2023-05-19T00:53:34.041Z,2.20
2023-05-19T00:56:02.606Z,2.70
2023-05-19T00:58:31.225Z,2.55
2023-05-19T01:01:04.555Z,2.58
2023-05-19T01:03:35.613Z,2.08
2023-05-19T01:06:08.092Z,2.55
2023-05-19T01:08:37.346Z,2.70
2023-05-19T01:11:06.856Z,2.55
2023-05-19T01:13:36.401Z,2.35
2023-05-19T01:16:26.726Z,2.62
2023-05-19T01:19:13.321Z,2.83
2023-05-19T01:21:48.944Z,2.37
2023-05-19T01:24:45.406Z,2.80
2023-05-19T01:27:54.451Z,2.28
2023-05-19T01:30:27.113Z,2.62
2023-05-19T01:32:58.495Z,2.85
2023-05-19T01:35:27.618Z,2.72
2023-05-19T01:37:57.674Z,2.87
2023-05-19T01:40:26.690Z,2.78
2023-05-19T01:42:57.875Z,2.62
2023-05-19T01:45:27.819Z,2.83
2023-05-19T01:47:58.676Z,2.40
2023-05-19T01:50:26.469Z,2.65
2023-05-19T01:52:55.626Z,2.45
2023-05-19T01:55:23.870Z,3.10
2023-05-19T01:58:12.312Z,2.50
2023-05-19T02:00:53.826Z,2.87
2023-05-19T02:03:45.472Z,2.80
2023-05-19T02:06:36.091Z,2.78
2023-05-19T02:09:34.893Z,2.70
2023-05-19T02:12:10.471Z,3.37
2023-05-19T02:15:04.825Z,2.85
2023-05-19T02:17:36.718Z,3.10
2023-05-19T02:20:05.712Z,2.67
2023-05-19T02:22:33.105Z,2.83
2023-05-19T02:25:00.340Z,2.80
2023-05-19T02:27:27.583Z,3.30
2023-05-19T02:29:54.925Z,2.78
2023-05-19T02:32:22.361Z,3.10
2023-05-19T02:34:49.414Z,3.55
2023-05-19T02:37:17.739Z,3.28
2023-05-19T02:39:45.150Z,3.70
2023-05-19T02:42:14.688Z,4.05
2023-05-19T02:44:42.037Z,4.40
2023-05-19T02:47:09.068Z,3.42
2023-05-19T02:49:36.245Z,3.20
2023-05-19T02:52:04.646Z,3.72
2023-05-19T02:54:32.836Z,3.45
2023-05-19T02:57:00.533Z,3.17
2023-05-19T02:59:27.886Z,2.83
2023-05-19T03:01:56.691Z,4.47
2023-05-19T03:04:23.771Z,3.35
2023-05-19T03:06:51.136Z,3.47
2023-05-19T03:09:18.439Z,3.00
2023-05-19T03:11:45.680Z,3.50
2023-05-19T03:14:14.065Z,3.33
2023-05-19T03:16:42.296Z,3.05
2023-05-19T03:19:09.889Z,3.10
2023-05-19T03:21:37.597Z,3.40
2023-05-19T03:24:04.963Z,4.18
2023-05-19T03:26:33.266Z,4.25
2023-05-19T03:29:00.971Z,3.67
2023-05-19T03:31:28.437Z,3.30
2023-05-19T03:33:55.687Z,4.20
2023-05-19T03:36:23.623Z,4.55
2023-05-19T03:38:50.950Z,4.53
2023-05-19T03:41:18.023Z,4.82
2023-05-19T03:43:45.501Z,5.43
2023-05-19T03:46:12.632Z,4.78
2023-05-19T03:48:41.704Z,4.47
2023-05-19T03:51:12.292Z,4.37
2023-05-19T03:53:39.648Z,4.07
2023-05-19T03:56:07.708Z,4.55
2023-05-19T03:58:37.022Z,4.75
2023-05-19T04:01:04.046Z,4.57
2023-05-19T04:03:31.385Z,4.70
2023-05-19T04:05:58.514Z,4.60
2023-05-19T04:08:26.102Z,5.20
2023-05-19T04:10:53.579Z,4.53
2023-05-19T04:13:21.736Z,4.68
2023-05-19T04:15:48.855Z,5.53
2023-05-19T04:18:16.236Z,4.45
2023-05-19T04:20:43.449Z,4.25
2023-05-19T04:23:10.899Z,4.18
2023-05-19T04:25:38.446Z,3.83
2023-05-19T04:28:05.478Z,4.75
2023-05-19T04:30:33.437Z,5.05
2023-05-19T04:33:03.308Z,4.32
2023-05-19T04:35:31.369Z,4.20
2023-05-19T04:38:00.078Z,4.22
2023-05-19T04:40:31.248Z,4.45
2023-05-19T04:42:59.090Z,3.53
2023-05-19T04:45:26.399Z,3.62
2023-05-19T04:47:57.934Z,4.28
2023-05-19T04:50:25.286Z,3.70
2023-05-19T04:52:52.883Z,3.70
2023-05-19T04:55:20.310Z,3.58
2023-05-19T04:57:47.970Z,4.70
2023-05-19T05:00:15.532Z,3.25
2023-05-19T05:02:43.968Z,3.50
2023-05-19T05:05:11.143Z,3.65
2023-05-19T05:07:38.197Z,3.03
2023-05-19T05:10:07.185Z,3.85
2023-05-19T05:12:35.114Z,3.80
2023-05-19T05:15:02.490Z,3.67
2023-05-19T05:17:30.360Z,3.72
2023-05-19T05:19:57.729Z,3.75
2023-05-19T05:22:26.091Z,4.05
2023-05-19T05:24:54.177Z,3.67
2023-05-19T05:27:21.414Z,3.87
2023-05-19T05:29:48.497Z,3.70
2023-05-19T05:32:17.079Z,3.62
2023-05-19T05:34:44.829Z,4.75
2023-05-19T05:37:13.207Z,4.28
2023-05-19T05:39:42.584Z,3.90
2023-05-19T05:42:10.855Z,4.90
2023-05-19T05:44:38.837Z,5.20
2023-05-19T05:47:07.162Z,3.83
2023-05-19T05:49:39.146Z,4.40
2023-05-19T05:52:08.917Z,4.12
2023-05-19T05:54:38.085Z,4.10
2023-05-19T05:57:06.323Z,4.12
2023-05-19T05:59:34.063Z,3.95
2023-05-19T06:02:01.500Z,3.85
2023-05-19T06:04:28.939Z,3.50
2023-05-19T06:07:01.167Z,3.35
2023-05-19T06:09:30.347Z,3.47
2023-05-19T06:11:59.224Z,3.78
2023-05-19T06:14:26.921Z,3.50
2023-05-19T06:16:55.112Z,3.15
2023-05-19T06:19:22.290Z,3.58
2023-05-19T06:21:49.401Z,3.47
2023-05-19T06:24:16.990Z,2.83
2023-05-19T06:26:44.033Z,3.17
2023-05-19T06:29:11.461Z,3.87
2023-05-19T06:31:38.900Z,3.35
2023-05-19T06:34:06.453Z,3.30
2023-05-19T06:36:35.226Z,3.60
2023-05-19T06:39:02.934Z,3.03
2023-05-19T06:41:30.782Z,2.33
2023-05-19T06:43:57.919Z,3.03
2023-05-19T06:46:25.391Z,2.92
2023-05-19T06:48:53.081Z,2.47
2023-05-19T06:51:22.380Z,5.03
2023-05-19T06:53:50.952Z,5.30
2023-05-19T06:56:19.006Z,4.40
2023-05-19T06:58:46.346Z,6.50
2023-05-19T07:01:13.647Z,4.12
2023-05-19T07:03:41.914Z,5.85
2023-05-19T07:06:09.424Z,7.72
2023-05-19T07:08:37.324Z,4.28
2023-05-19T07:11:05.187Z,5.32
2023-05-19T07:13:33.002Z,3.97
2023-05-19T07:16:00.576Z,4.87
2023-05-19T07:18:31.759Z,4.25
2023-05-19T07:21:02.006Z,4.68
2023-05-19T07:23:29.406Z,5.40
2023-05-19T07:25:57.013Z,4.97
2023-05-19T07:28:24.166Z,4.72
2023-05-19T07:30:51.968Z,4.60
2023-05-19T07:33:19.177Z,4.50
2023-05-19T07:35:46.370Z,4.57
2023-05-19T07:38:13.898Z,3.87
2023-05-19T07:40:41.052Z,3.72
2023-05-19T07:43:08.252Z,3.17
2023-05-19T07:45:35.769Z,4.10
2023-05-19T07:48:03.110Z,4.05
2023-05-19T07:50:30.503Z,2.92
2023-05-19T07:52:58.048Z,3.47
2023-05-19T07:55:25.115Z,3.20
2023-05-19T07:57:52.284Z,2.78
2023-05-19T08:00:20.418Z,2.92
2023-05-19T08:02:48.048Z,2.53
2023-05-19T08:05:15.231Z,3.92
2023-05-19T08:07:42.406Z,10.45
2023-05-19T08:10:10.063Z,41.35
2023-05-19T08:12:37.131Z,19.52
2023-05-19T08:15:04.756Z,26.80
2023-05-19T08:17:32.234Z,8.93
2023-05-19T08:20:00.410Z,8.40
2023-05-19T08:22:28.142Z,3.42
2023-05-19T08:24:55.589Z,2.40
2023-05-19T08:27:22.821Z,5.70
2023-05-19T08:29:50.026Z,3.42
2023-05-19T08:32:17.993Z,39.05
2023-05-19T08:34:45.113Z,15.00
2023-05-19T08:37:12.325Z,4.15
2023-05-19T08:39:40.063Z,3.92
2023-05-19T08:42:09.797Z,6.68
2023-05-19T08:44:39.956Z,3.37
2023-05-19T08:47:12.577Z,4.20
2023-05-19T08:49:47.036Z,5.80
2023-05-19T08:52:53.411Z,7.62
2023-05-19T08:55:48.076Z,3.72
2023-05-19T08:58:20.320Z,5.62
2023-05-19T09:00:48.764Z,4.45
2023-05-19T09:03:23.261Z,5.12
2023-05-19T09:05:51.438Z,4.32
2023-05-19T09:08:19.141Z,4.22
2023-05-19T09:10:46.390Z,4.15
2023-05-19T09:13:13.541Z,3.72
2023-05-19T09:15:42.936Z,4.25
2023-05-19T09:18:12.904Z,3.10
2023-05-19T09:20:42.573Z,3.67
2023-05-19T09:23:16.821Z,3.62
2023-05-19T09:25:52.453Z,3.05
2023-05-19T09:28:33.475Z,3.22
2023-05-19T09:31:10.973Z,2.78
2023-05-19T09:33:39.739Z,3.75
2023-05-19T09:36:13.978Z,4.35
2023-05-19T09:38:41.513Z,4.70
2023-05-19T09:41:09.525Z,5.30
2023-05-19T09:43:36.831Z,3.55
2023-05-19T09:46:05.409Z,3.05
2023-05-19T09:48:34.579Z,3.35
2023-05-19T09:51:02.547Z,3.53
2023-05-19T09:53:31.122Z,3.85
2023-05-19T09:55:59.118Z,3.50
2023-05-19T09:58:27.089Z,3.30
2023-05-19T10:00:57.511Z,3.40
2023-05-19T10:03:25.563Z,4.15
2023-05-19T10:05:53.601Z,3.33
2023-05-19T10:08:21.842Z,3.67
2023-05-19T10:10:49.315Z,3.80
2023-05-19T10:13:17.198Z,2.97
2023-05-19T10:15:57.242Z,3.20
2023-05-19T10:18:27.354Z,3.00
2023-05-19T10:20:54.824Z,2.95
2023-05-19T10:23:22.602Z,3.42
2023-05-19T10:25:52.617Z,3.35
2023-05-19T10:28:23.647Z,3.08
2023-05-19T10:30:54.812Z,3.75
2023-05-19T10:33:37.230Z,3.95
2023-05-19T10:36:32.113Z,2.92
2023-05-19T10:39:13.029Z,3.33
2023-05-19T10:42:04.323Z,3.60
2023-05-19T10:44:34.341Z,3.85
2023-05-19T10:47:01.861Z,3.22
2023-05-19T10:49:29.118Z,3.15
2023-05-19T10:51:59.322Z,3.72
2023-05-19T10:54:46.919Z,2.47
2023-05-19T10:57:17.845Z,3.33
2023-05-19T10:59:45.532Z,2.92
2023-05-19T11:02:42.953Z,3.40
2023-05-19T11:05:14.327Z,2.97
2023-05-19T11:07:43.593Z,3.08
2023-05-19T11:10:11.648Z,3.03
2023-05-19T11:12:43.882Z,3.83
2023-05-19T11:15:15.777Z,4.07
2023-05-19T11:17:48.437Z,4.22
2023-05-19T11:20:24.969Z,4.00
2023-05-19T11:23:24.595Z,4.25
2023-05-19T11:25:54.459Z,4.18
2023-05-19T11:28:28.218Z,4.18
2023-05-19T11:30:58.998Z,5.65
2023-05-19T11:33:27.679Z,5.00
2023-05-19T11:35:58.401Z,4.43
2023-05-19T11:38:28.319Z,4.37
2023-05-19T11:40:56.743Z,4.35
2023-05-19T11:43:24.894Z,4.50
2023-05-19T11:45:53.347Z,4.28
2023-05-19T11:48:22.321Z,4.20
2023-05-19T11:50:50.216Z,4.53
2023-05-19T11:53:19.626Z,5.22
2023-05-19T11:55:48.747Z,5.12
2023-05-19T11:58:16.844Z,5.00
2023-05-19T12:00:46.158Z,4.35
2023-05-19T12:03:13.902Z,4.35
2023-05-19T12:05:46.069Z,4.50
2023-05-19T12:08:14.812Z,4.72
2023-05-19T12:10:41.880Z,4.65
2023-05-19T12:13:09.990Z,4.43
2023-05-19T12:15:38.894Z,5.05
2023-05-19T12:18:06.734Z,5.47
2023-05-19T12:20:36.174Z,5.37
2023-05-19T12:23:04.495Z,5.28
2023-05-19T12:25:32.248Z,4.80
2023-05-19T12:28:02.823Z,4.72
2023-05-19T12:30:31.583Z,5.00
2023-05-19T12:32:59.587Z,4.30
2023-05-19T12:35:34.714Z,4.68
2023-05-19T12:38:06.596Z,4.80
2023-05-19T12:40:40.409Z,4.97
2023-05-19T12:43:09.670Z,4.10
2023-05-19T12:45:38.293Z,4.37
2023-05-19T12:48:18.207Z,3.95
2023-05-19T12:50:45.857Z,3.30
2023-05-19T12:53:14.237Z,3.53
2023-05-19T12:55:45.449Z,3.97
2023-05-19T12:58:13.498Z,3.58
2023-05-19T13:00:42.600Z,3.67
2023-05-19T13:03:18.988Z,3.62
2023-05-19T13:05:49.762Z,3.92
2023-05-19T13:08:22.045Z,3.65
2023-05-19T13:10:49.760Z,3.92
2023-05-19T13:13:17.648Z,3.70
2023-05-19T13:15:46.013Z,3.22
2023-05-19T13:18:13.769Z,3.20
2023-05-19T13:20:42.747Z,3.50
2023-05-19T13:23:11.077Z,3.78
2023-05-19T13:25:38.487Z,3.75
2023-05-19T13:28:06.028Z,3.95
2023-05-19T13:30:38.585Z,3.40
2023-05-19T13:33:06.601Z,3.63
2023-05-19T13:35:37.403Z,3.53
2023-05-19T13:38:06.771Z,3.80
2023-05-19T13:40:35.094Z,3.60
2023-05-19T13:43:03.587Z,3.28
2023-05-19T13:45:30.881Z,4.37
2023-05-19T13:47:58.324Z,4.22
2023-05-19T13:50:25.566Z,3.10
2023-05-19T13:52:52.662Z,3.78
2023-05-19T13:55:20.150Z,3.22
2023-05-19T13:57:47.267Z,3.10
2023-05-19T14:00:14.843Z,3.50
2023-05-19T14:02:42.502Z,3.62
2023-05-19T14:05:10.172Z,3.62
2023-05-19T14:07:37.177Z,3.20
2023-05-19T14:10:08.415Z,3.87
2023-05-19T14:12:49.339Z,3.95
2023-05-19T14:15:23.833Z,3.08
2023-05-19T14:17:51.062Z,3.33
2023-05-19T14:20:18.260Z,3.50
2023-05-19T14:22:45.674Z,4.55
2023-05-19T14:25:12.857Z,3.47
2023-05-19T14:27:40.259Z,3.42
2023-05-19T14:30:08.711Z,3.60
2023-05-19T14:32:36.052Z,3.85
2023-05-19T14:35:03.584Z,3.12
2023-05-19T14:37:32.006Z,3.53
2023-05-19T14:39:59.574Z,2.85
2023-05-19T14:42:26.810Z,3.28
2023-05-19T14:44:54.124Z,2.83
2023-05-19T14:47:21.373Z,2.70
2023-05-19T14:49:49.145Z,2.80
2023-05-19T14:52:17.830Z,2.72
2023-05-19T14:54:44.927Z,2.78
2023-05-19T14:57:12.053Z,3.08
2023-05-19T14:59:39.558Z,2.80
2023-05-19T15:02:07.351Z,3.60
2023-05-19T15:04:34.413Z,2.65
2023-05-19T15:09:31.815Z,3.10
2023-05-19T15:12:01.212Z,2.97
2023-05-19T15:14:30.415Z,3.35
2023-05-19T15:16:58.709Z,2.55
2023-05-19T15:19:26.165Z,2.80
2023-05-19T15:21:53.902Z,2.90
2023-05-19T15:24:21.119Z,3.12
2023-05-19T15:26:48.371Z,3.00
2023-05-19T15:29:15.888Z,2.90
2023-05-19T15:31:43.243Z,2.95
2023-05-19T15:34:10.701Z,2.83
2023-05-19T15:36:38.139Z,2.70
2023-05-19T15:39:06.596Z,3.05
2023-05-19T15:41:33.767Z,2.90
2023-05-19T15:44:02.379Z,3.00
2023-05-19T15:46:30.225Z,2.17
2023-05-19T15:48:57.308Z,2.80
2023-05-19T15:51:25.256Z,2.30
2023-05-19T15:53:52.838Z,2.60
2023-05-19T15:56:20.059Z,2.60
2023-05-19T15:58:47.437Z,2.22
2023-05-19T16:01:15.574Z,2.45
2023-05-19T16:03:43.605Z,2.55
2023-05-19T16:06:11.074Z,2.62
2023-05-19T16:08:38.312Z,2.85
2023-05-19T16:11:06.043Z,2.15
2023-05-19T16:13:34.019Z,2.42
2023-05-19T16:16:01.120Z,2.33
2023-05-19T16:18:29.354Z,3.28
2023-05-19T16:20:56.660Z,2.65
2023-05-19T16:23:24.816Z,2.60
2023-05-19T16:25:52.964Z,3.28
2023-05-19T16:28:22.436Z,3.35
2023-05-19T16:30:50.985Z,3.87
2023-05-19T16:33:18.405Z,3.10
2023-05-19T16:35:45.623Z,3.00
2023-05-19T16:38:12.761Z,3.08
2023-05-19T16:40:40.138Z,3.20
2023-05-19T16:43:07.241Z,2.92
2023-05-19T16:45:34.439Z,3.33
2023-05-19T16:48:02.102Z,3.40
2023-05-19T16:50:29.641Z,2.85
2023-05-19T16:52:56.755Z,4.07
2023-05-19T16:55:25.414Z,3.42
2023-05-19T16:57:52.656Z,3.20
2023-05-19T17:00:20.369Z,3.03
2023-05-19T17:02:47.842Z,3.35
2023-05-19T17:05:15.175Z,3.22
2023-05-19T17:07:42.292Z,2.80
2023-05-19T17:10:09.839Z,3.60
2023-05-19T17:12:37.000Z,3.10
2023-05-19T17:15:04.543Z,3.53
2023-05-19T17:17:31.992Z,3.33
2023-05-19T17:19:59.702Z,3.25
2023-05-19T17:22:28.734Z,3.80
2023-05-19T17:24:57.544Z,3.50
2023-05-19T17:27:24.751Z,3.60
2023-05-19T17:29:51.882Z,3.87
2023-05-19T17:32:22.116Z,3.90
2023-05-19T17:34:49.290Z,5.25
2023-05-19T17:37:19.027Z,4.35
2023-05-19T17:39:46.379Z,2.90
2023-05-19T17:42:13.522Z,3.87
2023-05-19T17:44:41.344Z,3.37
2023-05-19T17:47:08.740Z,3.40
2023-05-19T17:49:36.051Z,3.22
2023-05-19T17:52:03.566Z,3.12
2023-05-19T17:54:31.353Z,3.40
2023-05-19T17:57:01.616Z,3.92
2023-05-19T17:59:30.075Z,4.37
2023-05-19T18:01:57.784Z,4.62
2023-05-19T18:04:25.634Z,4.37
2023-05-19T18:06:53.551Z,4.53
2023-05-19T18:09:23.165Z,4.80
2023-05-19T18:11:50.653Z,4.95
2023-05-19T18:14:17.964Z,4.53
2023-05-19T18:16:45.194Z,4.90
2023-05-19T18:19:12.702Z,5.43
2023-05-19T18:21:39.782Z,5.00
2023-05-19T18:24:07.093Z,5.82
2023-05-19T18:26:34.558Z,5.47
2023-05-19T18:29:04.831Z,5.55
2023-05-19T18:31:32.057Z,5.22
2023-05-19T18:33:59.622Z,5.50
2023-05-19T18:36:26.870Z,5.25
2023-05-19T18:38:55.149Z,5.62
2023-05-19T18:41:22.854Z,5.00
2023-05-19T18:43:50.117Z,5.50
2023-05-19T18:46:18.104Z,5.55
2023-05-19T18:48:45.651Z,6.32
2023-05-19T18:51:15.697Z,5.75
2023-05-19T18:53:42.788Z,7.85
2023-05-19T18:56:13.067Z,8.57
2023-05-19T18:58:40.228Z,8.73
2023-05-19T19:01:07.540Z,10.18
2023-05-19T19:03:34.977Z,12.90
2023-05-19T19:06:02.077Z,11.65
2023-05-19T19:08:29.193Z,11.10
2023-05-19T19:11:00.221Z,12.40
2023-05-19T19:13:28.194Z,10.55
2023-05-19T19:15:55.306Z,9.88
2023-05-19T19:18:22.755Z,12.40
2023-05-19T19:20:49.960Z,10.88
2023-05-19T19:23:17.037Z,10.50
2023-05-19T19:25:44.428Z,8.18
2023-05-19T19:28:12.896Z,8.38
2023-05-19T19:30:39.974Z,8.60
2023-05-19T19:33:08.701Z,8.43
2023-05-19T19:35:35.794Z,8.10
2023-05-19T19:38:02.824Z,8.73
2023-05-19T19:40:30.269Z,9.13
2023-05-19T19:42:57.376Z,10.55
2023-05-19T19:45:24.568Z,11.80
2023-05-19T19:47:52.105Z,9.98
2023-05-19T19:50:19.279Z,8.30
2023-05-19T19:52:46.440Z,7.25
2023-05-19T19:55:13.831Z,8.07
2023-05-19T19:57:40.926Z,6.53
2023-05-19T20:00:09.148Z,6.62
2023-05-19T20:02:51.650Z,5.97
2023-05-19T20:05:26.898Z,6.82
2023-05-19T20:07:54.291Z,10.25
2023-05-19T20:10:21.433Z,9.68
2023-05-19T20:12:50.521Z,9.00
2023-05-19T20:15:18.031Z,7.65
2023-05-19T20:17:45.163Z,7.22
2023-05-19T20:20:12.758Z,8.23
2023-05-19T20:22:40.214Z,9.02
2023-05-19T20:25:07.829Z,9.05
2023-05-19T20:27:34.912Z,9.02
2023-05-19T20:30:02.330Z,9.30
2023-05-19T20:32:29.442Z,8.93
2023-05-19T20:34:56.684Z,7.70
2023-05-19T20:37:24.176Z,6.57
2023-05-19T20:39:51.371Z,6.57
2023-05-19T20:42:18.487Z,6.00
2023-05-19T20:44:45.880Z,5.68
2023-05-19T20:47:13.006Z,4.97
2023-05-19T20:49:40.015Z,4.78
2023-05-19T20:52:07.432Z,4.50
2023-05-19T20:54:34.612Z,4.68
2023-05-19T20:57:06.358Z,5.45
2023-05-19T20:59:33.782Z,4.47
2023-05-19T21:02:01.138Z,5.00
2023-05-19T21:04:28.425Z,4.78
2023-05-19T21:06:56.054Z,4.82
2023-05-19T21:09:23.233Z,4.53
2023-05-19T21:11:53.149Z,4.57
2023-05-19T21:14:23.552Z,5.87
2023-05-19T21:16:53.853Z,11.85
2023-05-19T21:19:21.939Z,18.62
2023-05-19T21:21:49.600Z,9.13
2023-05-19T21:24:16.823Z,7.72
2023-05-19T21:26:44.282Z,12.13
2023-05-19T21:29:11.315Z,23.60
2023-05-19T21:31:38.553Z,26.15
2023-05-19T21:34:07.716Z,19.30
2023-05-19T21:36:35.280Z,14.05
2023-05-19T21:39:03.682Z,9.48
2023-05-19T21:41:33.538Z,7.97
2023-05-19T21:44:00.577Z,8.18
2023-05-19T21:46:29.198Z,6.45
2023-05-19T21:48:56.785Z,6.40
2023-05-19T21:51:23.805Z,6.47
2023-05-19T21:53:50.857Z,6.50
2023-05-19T21:56:18.312Z,6.05
2023-05-19T21:58:45.447Z,6.60
2023-05-19T22:01:13.238Z,6.37
2023-05-19T22:03:40.697Z,5.85
2023-05-19T22:06:08.303Z,5.65
2023-05-19T22:08:35.549Z,5.37
2023-05-19T22:11:02.888Z,5.47
2023-05-19T22:13:30.301Z,5.43
2023-05-19T22:15:57.950Z,5.43
2023-05-19T22:18:25.383Z,4.95
2023-05-19T22:20:52.428Z,5.75
2023-05-19T22:23:19.516Z,5.18
2023-05-19T22:25:46.990Z,5.53
2023-05-19T22:28:14.135Z,5.37
2023-05-19T22:30:42.351Z,6.05
2023-05-19T22:33:11.402Z,5.12
2023-05-19T22:35:38.708Z,5.72
2023-05-19T22:38:07.512Z,5.30
2023-05-19T22:40:37.133Z,5.25
2023-05-19T22:43:04.536Z,5.25
2023-05-19T22:45:31.943Z,6.07
2023-05-19T22:47:59.533Z,5.82
2023-05-19T22:50:26.753Z,5.65
2023-05-19T22:52:53.981Z,5.62
2023-05-19T22:55:21.362Z,6.25
2023-05-19T22:57:48.523Z,5.40
2023-05-19T23:00:18.516Z,6.25
2023-05-19T23:02:46.187Z,5.97
2023-05-19T23:05:13.388Z,5.30
2023-05-19T23:07:40.844Z,5.55
2023-05-19T23:10:08.637Z,5.57
2023-05-19T23:12:35.845Z,6.50
2023-05-19T23:15:03.623Z,5.15
2023-05-19T23:17:31.082Z,4.90
2023-05-19T23:19:58.238Z,4.97
2023-05-19T23:22:25.407Z,5.32
2023-05-19T23:24:52.775Z,4.93
2023-05-19T23:27:19.867Z,4.57
2023-05-19T23:29:50.874Z,4.03
2023-05-19T23:32:18.382Z,5.00
2023-05-19T23:34:47.396Z,4.95
2023-05-19T23:37:14.450Z,4.95
2023-05-19T23:39:41.916Z,4.68
2023-05-19T23:42:09.017Z,4.70
2023-05-19T23:44:36.171Z,4.28
2023-05-19T23:47:03.628Z,4.60
2023-05-19T23:49:30.801Z,4.75
2023-05-19T23:51:57.864Z,4.47
2023-05-19T23:54:26.612Z,4.30
2023-05-19T23:56:55.782Z,4.75
2023-05-19T23:59:23.116Z,4.03
